Time;durP1;ratioP1;P1;durP2;ratioP2;P2;SDS_P1;SDS_P2;PMS_P1;PMS_P2;Temp;Humidity;BMP_temperature;BMP_pressure;BME280_temperature;BME280_humidity;BME280_pressure;Samples;Min_cycle;Max_cycle;Signal;HPM_P1;HPM_P2
2022/03/23 00:00:26;;;;;;;5.50;5.00;;;;;;;;;;5097385;28;20537;-53
2022/03/23 00:02:55;;;;;;;5.28;4.78;;;;;;;;;;5097683;28;20215;-53
2022/03/23 00:05:25;;;;;;;4.55;4.15;;;;;;;;;;5096249;28;20282;-53
2022/03/23 00:07:52;;;;;;;4.85;4.45;;;;;;;;;;5097601;28;20208;-53
2022/03/23 00:10:19;;;;;;;4.88;4.47;;;;;;;;;;5097320;28;20310;-53
2022/03/23 00:12:47;;;;;;;4.55;4.15;;;;;;;;;;5097726;28;20299;-53
2022/03/23 00:15:14;;;;;;;5.32;4.82;;;;;;;;;;5097166;28;20192;-53
2022/03/23 00:17:42;;;;;;;5.13;4.72;;;;;;;;;;5097327;28;20238;-53
2022/03/23 00:20:11;;;;;;;4.90;4.50;;;;;;;;;;5096782;28;20542;-53
2022/03/23 00:22:39;;;;;;;4.78;4.38;;;;;;;;;;5097286;28;20246;-53
2022/03/23 00:25:08;;;;;;;4.75;4.35;;;;;;;;;;5097179;28;20210;-53
2022/03/23 00:27:36;;;;;;;5.00;4.60;;;;;;;;;;5096540;28;20265;-53
2022/03/23 00:30:03;;;;;;;5.20;4.70;;;;;;;;;;5097080;28;20627;-53
2022/03/23 00:32:31;;;;;;;5.25;4.85;;;;;;;;;;5096521;28;20298;-53
2022/03/23 00:34:58;;;;;;;5.13;4.72;;;;;;;;;;5097055;28;20310;-53
2022/03/23 00:37:27;;;;;;;5.68;5.18;;;;;;;;;;5095330;28;20294;-53
2022/03/23 00:39:54;;;;;;;5.15;4.75;;;;;;;;;;5097447;28;20237;-53
2022/03/23 00:42:22;;;;;;;5.00;4.60;;;;;;;;;;5096471;28;20304;-53
2022/03/23 00:44:51;;;;;;;5.00;4.60;;;;;;;;;;5098385;28;20623;-53
2022/03/23 00:47:19;;;;;;;4.97;4.57;;;;;;;;;;5096974;28;20665;-53
2022/03/23 00:49:46;;;;;;;5.15;4.70;;;;;;;;;;5097897;28;20311;-53
2022/03/23 00:52:14;;;;;;;5.00;4.60;;;;;;;;;;5097595;28;20230;-53
2022/03/23 00:54:44;;;;;;;5.15;4.75;;;;;;;;;;5097101;28;20286;-53
2022/03/23 00:57:12;;;;;;;5.07;4.68;;;;;;;;;;5097247;28;20670;-53
2022/03/23 00:59:39;;;;;;;5.32;4.88;;;;;;;;;;5096351;28;20315;-53
2022/03/23 01:02:09;;;;;;;5.10;4.60;;;;;;;;;;5098159;28;20265;-53
2022/03/23 01:04:36;;;;;;;5.35;4.95;;;;;;;;;;5097312;28;20693;-53
2022/03/23 01:07:05;;;;;;;5.10;4.70;;;;;;;;;;5097024;28;20298;-53
2022/03/23 01:09:33;;;;;;;5.18;4.68;;;;;;;;;;5098152;28;20463;-53
2022/03/23 01:12:04;;;;;;;4.97;4.57;;;;;;;;;;5098093;28;20331;-53
2022/03/23 01:14:32;;;;;;;5.22;4.72;;;;;;;;;;5096915;28;20235;-53
2022/03/23 01:16:59;;;;;;;4.93;4.53;;;;;;;;;;5097084;28;20203;-53
2022/03/23 01:19:27;;;;;;;5.60;5.10;;;;;;;;;;5097062;28;20334;-53
2022/03/23 01:21:55;;;;;;;5.55;5.05;;;;;;;;;;5097412;28;20268;-53
2022/03/23 01:24:23;;;;;;;5.32;4.85;;;;;;;;;;5097115;28;20337;-53
2022/03/23 01:26:51;;;;;;;5.50;5.05;;;;;;;;;;5097355;28;20579;-53
2022/03/23 01:29:20;;;;;;;5.60;5.10;;;;;;;;;;5097426;28;20211;-53
2022/03/23 01:31:48;;;;;;;5.03;4.60;;;;;;;;;;5097448;28;20211;-53
2022/03/23 01:34:15;;;;;;;5.10;4.70;;;;;;;;;;5096948;28;20289;-53
2022/03/23 01:36:43;;;;;;;5.28;4.82;;;;;;;;;;5096622;28;20302;-53
2022/03/23 01:39:10;;;;;;;5.13;4.65;;;;;;;;;;5097455;28;20314;-53
2022/03/23 01:41:38;;;;;;;5.30;4.90;;;;;;;;;;5096837;28;20203;-53
2022/03/23 01:44:13;;;;;;;5.05;4.65;;;;;;;;;;5097561;28;20321;-53
2022/03/23 01:46:59;;;;;;;5.35;4.85;;;;;;;;;;5096596;28;20211;-53
2022/03/23 01:49:26;;;;;;;5.30;4.90;;;;;;;;;;5096508;28;20249;-53
2022/03/23 01:51:54;;;;;;;5.00;4.60;;;;;;;;;;5095914;28;20575;-53
2022/03/23 01:54:21;;;;;;;5.07;4.68;;;;;;;;;;5097428;28;20302;-53
2022/03/23 01:56:50;;;;;;;4.82;4.43;;;;;;;;;;5096026;28;20570;-53
2022/03/23 01:59:18;;;;;;;5.53;5.07;;;;;;;;;;5095891;28;20689;-53
2022/03/23 02:01:47;;;;;;;5.82;5.22;;;;;;;;;;5096368;28;20303;-53
2022/03/23 02:04:15;;;;;;;5.05;4.65;;;;;;;;;;5095090;28;20217;-53
2022/03/23 02:06:43;;;;;;;5.20;4.70;;;;;;;;;;5096008;28;20616;-53
2022/03/23 02:09:10;;;;;;;5.18;4.78;;;;;;;;;;5095854;28;20223;-52
2022/03/23 02:11:39;;;;;;;5.30;4.80;;;;;;;;;;5096094;28;20290;-52
2022/03/23 02:14:06;;;;;;;5.03;4.47;;;;;;;;;;5096009;28;20294;-53
2022/03/23 02:16:40;;;;;;;5.00;4.50;;;;;;;;;;5095075;28;20282;-53
2022/03/23 02:19:08;;;;;;;5.10;4.70;;;;;;;;;;5096099;28;20501;-53
2022/03/23 02:21:36;;;;;;;5.88;5.20;;;;;;;;;;5095277;28;20549;-53
2022/03/23 02:24:05;;;;;;;5.75;5.15;;;;;;;;;;5095891;28;20320;-53
2022/03/23 02:26:33;;;;;;;5.68;4.70;;;;;;;;;;5095907;28;20302;-52
2022/03/23 02:29:02;;;;;;;5.30;4.80;;;;;;;;;;5095866;28;20290;-53
2022/03/23 02:31:29;;;;;;;5.20;4.70;;;;;;;;;;5095753;28;20203;-53
2022/03/23 02:33:57;;;;;;;4.95;4.50;;;;;;;;;;5095617;28;20510;-53
2022/03/23 02:36:25;;;;;;;5.63;4.95;;;;;;;;;;5096297;28;20203;-53
2022/03/23 02:38:52;;;;;;;5.50;4.97;;;;;;;;;;5096397;28;20234;-53
2022/03/23 02:41:21;;;;;;;5.13;4.63;;;;;;;;;;5096497;28;20239;-53
2022/03/23 02:43:48;;;;;;;4.97;4.57;;;;;;;;;;5096228;28;20202;-53
2022/03/23 02:46:17;;;;;;;5.28;4.88;;;;;;;;;;5095526;28;20294;-53
2022/03/23 02:48:44;;;;;;;5.22;4.82;;;;;;;;;;5095089;28;20322;-52
2022/03/23 02:51:12;;;;;;;5.32;4.82;;;;;;;;;;5095888;28;20307;-52
2022/03/23 03:02:01;;;;;;;4.63;4.18;;;;;;;;;;5095510;28;20272;-52
2022/03/23 03:04:29;;;;;;;4.93;4.53;;;;;;;;;;5095049;28;20298;-52
2022/03/23 03:06:58;;;;;;;4.93;4.53;;;;;;;;;;5094230;28;20571;-52
2022/03/23 03:09:26;;;;;;;4.75;4.30;;;;;;;;;;5095868;28;20509;-52
2022/03/23 03:11:55;;;;;;;4.95;4.55;;;;;;;;;;5095417;28;20223;-52
2022/03/23 03:14:22;;;;;;;5.00;4.55;;;;;;;;;;5096513;28;20287;-53
2022/03/23 03:16:50;;;;;;;5.03;4.63;;;;;;;;;;5095343;28;20211;-53
2022/03/23 03:19:17;;;;;;;5.43;4.93;;;;;;;;;;5098054;28;20224;-53
2022/03/23 03:21:45;;;;;;;4.85;4.45;;;;;;;;;;5100316;28;20204;-52
2022/03/23 03:24:12;;;;;;;5.43;4.93;;;;;;;;;;5099307;28;20287;-53
2022/03/23 03:26:40;;;;;;;4.90;4.50;;;;;;;;;;5098799;28;20486;-53
2022/03/23 03:29:09;;;;;;;4.85;4.45;;;;;;;;;;5100185;28;20295;-53
2022/03/23 03:31:36;;;;;;;5.13;4.72;;;;;;;;;;5098770;28;20490;-53
2022/03/23 03:34:04;;;;;;;5.40;4.90;;;;;;;;;;5098838;28;20290;-53
2022/03/23 03:36:31;;;;;;;5.18;4.70;;;;;;;;;;5099625;28;20306;-53
2022/03/23 03:38:58;;;;;;;5.20;4.70;;;;;;;;;;5099562;28;20542;-52
2022/03/23 03:41:26;;;;;;;5.18;4.75;;;;;;;;;;5099643;28;20204;-53
2022/03/23 03:43:54;;;;;;;5.10;4.70;;;;;;;;;;5098808;28;20196;-53
2022/03/23 03:46:24;;;;;;;4.97;4.57;;;;;;;;;;5099285;28;20222;-53
2022/03/23 03:48:52;;;;;;;4.75;4.35;;;;;;;;;;5099672;28;20243;-53
2022/03/23 03:51:19;;;;;;;5.18;4.78;;;;;;;;;;5099275;28;20203;-53
2022/03/23 03:53:47;;;;;;;4.93;4.53;;;;;;;;;;5098718;28;20307;-52
2022/03/23 03:56:15;;;;;;;5.20;4.80;;;;;;;;;;5099135;28;20269;-53
2022/03/23 03:58:43;;;;;;;5.32;4.93;;;;;;;;;;5099160;28;20238;-53
2022/03/23 04:01:14;;;;;;;4.93;4.53;;;;;;;;;;5097981;28;20210;-52
2022/03/23 04:03:43;;;;;;;5.30;4.80;;;;;;;;;;5098527;28;20253;-52
2022/03/23 04:06:10;;;;;;;5.00;4.60;;;;;;;;;;5098776;28;20438;-53
2022/03/23 04:08:38;;;;;;;4.95;4.55;;;;;;;;;;5098037;28;20302;-53
2022/03/23 04:11:06;;;;;;;4.70;4.30;;;;;;;;;;5098313;28;20286;-53
2022/03/23 04:13:33;;;;;;;5.35;4.88;;;;;;;;;;5098183;28;20294;-53
2022/03/23 04:16:00;;;;;;;5.30;4.90;;;;;;;;;;5098318;28;20212;-52
2022/03/23 04:18:28;;;;;;;4.88;4.47;;;;;;;;;;5097943;28;20492;-52
2022/03/23 04:20:57;;;;;;;5.10;4.60;;;;;;;;;;5098778;28;20354;-52
2022/03/23 04:23:25;;;;;;;4.90;4.50;;;;;;;;;;5098378;28;20239;-53
2022/03/23 04:25:52;;;;;;;4.95;4.55;;;;;;;;;;5098304;28;20302;-53
2022/03/23 04:28:21;;;;;;;4.55;4.15;;;;;;;;;;5097902;28;20302;-52
2022/03/23 04:30:49;;;;;;;4.65;4.35;;;;;;;;;;5097544;28;20284;-52
2022/03/23 04:33:16;;;;;;;4.82;4.43;;;;;;;;;;5098533;28;20230;-53
2022/03/23 04:35:44;;;;;;;4.80;4.40;;;;;;;;;;5097781;28;20297;-53
2022/03/23 04:38:13;;;;;;;5.05;4.65;;;;;;;;;;5098331;28;20567;-53
2022/03/23 04:40:41;;;;;;;5.10;4.70;;;;;;;;;;5098032;28;20219;-53
2022/03/23 04:43:09;;;;;;;5.03;4.63;;;;;;;;;;5098378;28;20207;-53
2022/03/23 04:45:36;;;;;;;5.00;4.57;;;;;;;;;;5097994;28;20290;-53
2022/03/23 04:48:04;;;;;;;5.35;4.85;;;;;;;;;;5097686;28;20322;-52
2022/03/23 04:50:32;;;;;;;4.80;4.40;;;;;;;;;;5098105;28;20253;-52
2022/03/23 04:52:59;;;;;;;4.70;4.32;;;;;;;;;;5097602;28;20302;-53
2022/03/23 04:55:28;;;;;;;4.97;4.45;;;;;;;;;;5097903;28;20459;-53
2022/03/23 04:57:55;;;;;;;4.65;4.15;;;;;;;;;;5097570;28;20203;-52
2022/03/23 05:00:23;;;;;;;4.82;4.43;;;;;;;;;;5097627;28;20322;-52
2022/03/23 05:02:50;;;;;;;5.13;4.72;;;;;;;;;;5097640;28;20306;-52
2022/03/23 05:05:18;;;;;;;4.70;4.30;;;;;;;;;;5097576;28;20214;-52
2022/03/23 05:07:46;;;;;;;4.93;4.53;;;;;;;;;;5097429;28;20575;-53
2022/03/23 05:10:14;;;;;;;4.63;4.30;;;;;;;;;;5097176;28;20589;-53
2022/03/23 05:12:43;;;;;;;4.85;4.45;;;;;;;;;;5096687;28;20204;-53
2022/03/23 05:15:11;;;;;;;5.03;4.55;;;;;;;;;;5096336;28;20290;-53
2022/03/23 05:17:39;;;;;;;4.68;4.28;;;;;;;;;;5095591;28;20211;-53
2022/03/23 05:20:07;;;;;;;4.60;4.20;;;;;;;;;;5096380;28;20226;-52
2022/03/23 05:22:35;;;;;;;4.68;4.28;;;;;;;;;;5095991;28;20204;-53
2022/03/23 05:25:03;;;;;;;5.05;4.65;;;;;;;;;;5096226;28;20268;-52
2022/03/23 05:27:36;;;;;;;4.63;4.32;;;;;;;;;;5096252;28;20196;-52
2022/03/23 05:30:07;;;;;;;5.03;4.63;;;;;;;;;;5096419;28;20247;-52
2022/03/23 05:32:35;;;;;;;4.85;4.35;;;;;;;;;;5095333;28;20214;-52
2022/03/23 05:35:02;;;;;;;5.10;4.70;;;;;;;;;;5095039;28;20667;-53
2022/03/23 05:37:30;;;;;;;4.55;4.25;;;;;;;;;;5095849;28;20203;-53
2022/03/23 05:39:57;;;;;;;4.97;4.57;;;;;;;;;;5096170;28;20313;-53
2022/03/23 05:42:25;;;;;;;4.80;4.40;;;;;;;;;;5096271;28;20213;-52
2022/03/23 05:44:52;;;;;;;4.90;4.50;;;;;;;;;;5095809;28;20621;-52
2022/03/23 05:47:22;;;;;;;5.18;4.78;;;;;;;;;;5094841;28;20436;-52
2022/03/23 05:49:49;;;;;;;5.07;4.68;;;;;;;;;;5094604;28;20291;-52
2022/03/23 05:52:17;;;;;;;4.65;4.25;;;;;;;;;;5094085;28;20207;-52
2022/03/23 05:54:44;;;;;;;4.95;4.55;;;;;;;;;;5094034;28;20219;-52
2022/03/23 05:57:12;;;;;;;5.13;4.72;;;;;;;;;;5093810;28;20504;-52
2022/03/23 05:59:39;;;;;;;4.80;4.40;;;;;;;;;;5093622;28;20326;-52
2022/03/23 06:02:07;;;;;;;5.03;4.63;;;;;;;;;;5094075;28;20208;-52
2022/03/23 06:04:35;;;;;;;5.10;4.70;;;;;;;;;;5093789;28;20563;-52
2022/03/23 06:07:04;;;;;;;4.65;4.32;;;;;;;;;;5093496;28;20470;-52
2022/03/23 06:09:31;;;;;;;4.75;4.35;;;;;;;;;;5092846;28;20200;-53
2022/03/23 06:12:00;;;;;;;4.65;4.25;;;;;;;;;;5092010;28;20329;-52
2022/03/23 06:14:28;;;;;;;4.63;4.22;;;;;;;;;;5091837;28;20210;-53
2022/03/23 06:16:55;;;;;;;4.35;4.00;;;;;;;;;;5091764;28;20322;-53
2022/03/23 06:19:23;;;;;;;4.80;4.40;;;;;;;;;;5092080;28;20220;-53
2022/03/23 06:21:52;;;;;;;4.82;4.43;;;;;;;;;;5092349;28;20203;-53
2022/03/23 06:24:19;;;;;;;4.57;4.18;;;;;;;;;;5090251;28;20267;-53
2022/03/23 06:26:47;;;;;;;4.75;4.38;;;;;;;;;;5092728;28;20214;-53
2022/03/23 06:29:14;;;;;;;5.18;4.70;;;;;;;;;;5091902;28;20286;-53
2022/03/23 06:31:41;;;;;;;5.13;4.72;;;;;;;;;;5091884;28;20243;-52
2022/03/23 06:34:09;;;;;;;4.70;4.30;;;;;;;;;;5092739;28;20593;-53
2022/03/23 06:36:37;;;;;;;5.07;4.57;;;;;;;;;;5092318;28;20210;-52
2022/03/23 06:39:06;;;;;;;4.68;4.28;;;;;;;;;;5091989;28;20248;-52
2022/03/23 06:41:33;;;;;;;4.60;4.20;;;;;;;;;;5091794;28;20199;-52
2022/03/23 06:44:01;;;;;;;5.03;4.63;;;;;;;;;;5090431;28;20200;-52
2022/03/23 06:46:28;;;;;;;4.35;4.05;;;;;;;;;;5092357;28;20200;-53
2022/03/23 06:48:56;;;;;;;4.93;4.53;;;;;;;;;;5091081;28;20236;-53
2022/03/23 06:51:23;;;;;;;4.60;4.20;;;;;;;;;;5092914;28;20579;-53
2022/03/23 06:53:51;;;;;;;4.50;4.10;;;;;;;;;;5093807;28;20217;-53
2022/03/23 06:56:19;;;;;;;5.10;4.70;;;;;;;;;;5095782;28;20203;-53
2022/03/23 06:58:47;;;;;;;4.60;4.30;;;;;;;;;;5085257;28;20825;-53
2022/03/23 07:01:14;;;;;;;4.80;4.40;;;;;;;;;;5085118;28;20220;-53
2022/03/23 07:03:42;;;;;;;4.40;4.10;;;;;;;;;;5088019;28;20192;-53
2022/03/23 07:06:10;;;;;;;4.53;4.20;;;;;;;;;;5087382;28;20494;-53
2022/03/23 07:11:23;;;;;;;4.65;4.25;;;;;;;;;;5091546;28;20198;-53
2022/03/23 07:13:51;;;;;;;4.78;4.40;;;;;;;;;;5095657;28;20557;-53
2022/03/23 07:16:18;;;;;;;5.05;4.65;;;;;;;;;;5096316;28;20307;-53
2022/03/23 07:18:46;;;;;;;4.78;4.38;;;;;;;;;;5095187;28;20430;-53
2022/03/23 07:21:13;;;;;;;4.78;4.38;;;;;;;;;;5096440;28;20219;-53
2022/03/23 07:23:40;;;;;;;4.35;4.05;;;;;;;;;;5095672;28;20195;-53
2022/03/23 07:26:08;;;;;;;5.22;4.72;;;;;;;;;;5096708;28;20211;-53
2022/03/23 07:28:37;;;;;;;4.90;4.50;;;;;;;;;;5097661;28;20495;-53
2022/03/23 07:31:04;;;;;;;4.78;4.38;;;;;;;;;;5096520;28;20303;-54
2022/03/23 07:33:32;;;;;;;4.50;4.10;;;;;;;;;;5096487;28;20298;-53
2022/03/23 07:36:01;;;;;;;4.88;4.47;;;;;;;;;;5097509;28;20713;-53
2022/03/23 07:38:28;;;;;;;4.72;4.32;;;;;;;;;;5095705;28;20207;-53
2022/03/23 07:40:55;;;;;;;5.00;4.60;;;;;;;;;;5096043;28;20611;-53
2022/03/23 07:43:23;;;;;;;5.05;4.65;;;;;;;;;;5095965;28;20204;-53
2022/03/23 07:45:52;;;;;;;5.35;4.93;;;;;;;;;;5094674;28;20579;-53
2022/03/23 07:48:20;;;;;;;5.60;5.05;;;;;;;;;;5095321;28;20245;-53
2022/03/23 07:50:47;;;;;;;6.30;5.43;;;;;;;;;;5096143;28;20200;-53
2022/03/23 07:53:15;;;;;;;5.20;4.80;;;;;;;;;;5095490;28;20649;-53
2022/03/23 07:55:42;;;;;;;5.28;4.82;;;;;;;;;;5094674;28;20494;-53
2022/03/23 07:58:10;;;;;;;5.68;5.10;;;;;;;;;;5095242;28;20309;-53
2022/03/23 08:00:41;;;;;;;5.50;5.00;;;;;;;;;;5095307;28;20664;-53
2022/03/23 08:03:11;;;;;;;5.75;5.25;;;;;;;;;;5096013;28;20211;-53
2022/03/23 08:05:38;;;;;;;5.70;5.20;;;;;;;;;;5094004;28;20491;-53
2022/03/23 08:08:07;;;;;;;5.18;4.75;;;;;;;;;;5094885;28;20206;-53
2022/03/23 08:10:36;;;;;;;6.03;5.53;;;;;;;;;;5095246;28;20464;-53
2022/03/23 08:13:03;;;;;;;5.68;5.18;;;;;;;;;;5094703;28;20203;-53
2022/03/23 08:15:31;;;;;;;6.35;5.53;;;;;;;;;;5094522;28;20307;-53
2022/03/23 08:17:58;;;;;;;7.10;6.40;;;;;;;;;;5094854;28;20217;-53
2022/03/23 08:20:36;;;;;;;9.48;8.57;;;;;;;;;;5094761;28;20488;-53
2022/03/23 08:23:04;;;;;;;9.80;8.80;;;;;;;;;;5090684;28;20211;-53
2022/03/23 08:25:32;;;;;;;10.15;8.90;;;;;;;;;;5082079;28;20575;-52
2022/03/23 08:28:00;;;;;;;9.73;8.35;;;;;;;;;;5084490;28;20208;-52
2022/03/23 08:30:28;;;;;;;10.52;8.02;;;;;;;;;;5095517;28;20310;-52
2022/03/23 08:32:55;;;;;;;9.40;8.38;;;;;;;;;;5095494;28;20204;-52
2022/03/23 08:35:23;;;;;;;8.25;7.40;;;;;;;;;;5095601;28;20203;-52
2022/03/23 08:37:52;;;;;;;8.50;7.70;;;;;;;;;;5096316;28;20742;-52
2022/03/23 08:40:20;;;;;;;8.70;7.80;;;;;;;;;;5096290;28;20228;-52
2022/03/23 08:42:48;;;;;;;8.70;7.90;;;;;;;;;;5096291;28;20669;-52
2022/03/23 08:45:17;;;;;;;9.80;7.40;;;;;;;;;;5096883;28;20234;-52
2022/03/23 08:47:45;;;;;;;8.40;7.55;;;;;;;;;;5096064;28;20263;-52
2022/03/23 08:50:13;;;;;;;8.02;6.97;;;;;;;;;;5096177;28;20614;-52
2022/03/23 08:52:41;;;;;;;8.25;7.00;;;;;;;;;;5091557;28;20196;-52
2022/03/23 08:55:14;;;;;;;8.18;7.40;;;;;;;;;;5094004;28;20215;-52
2022/03/23 08:57:42;;;;;;;7.93;7.13;;;;;;;;;;5093369;28;20200;-53
2022/03/23 09:00:11;;;;;;;8.32;7.53;;;;;;;;;;5094213;28;20203;-53
2022/03/23 09:02:39;;;;;;;8.27;7.50;;;;;;;;;;5093613;28;20207;-53
2022/03/23 09:05:09;;;;;;;7.50;6.85;;;;;;;;;;5094859;28;20306;-53
2022/03/23 09:07:38;;;;;;;7.47;6.72;;;;;;;;;;5095209;28;20281;-53
2022/03/23 09:10:06;;;;;;;7.32;6.63;;;;;;;;;;5094812;28;20631;-53
2022/03/23 09:12:36;;;;;;;7.93;7.13;;;;;;;;;;5096039;28;20302;-53
2022/03/23 09:15:04;;;;;;;7.25;6.65;;;;;;;;;;5095667;28;20204;-53
2022/03/23 09:17:32;;;;;;;7.57;6.47;;;;;;;;;;5094918;28;20302;-53
2022/03/23 09:20:01;;;;;;;11.05;6.68;;;;;;;;;;5094631;28;20225;-53
2022/03/23 09:22:29;;;;;;;7.90;7.10;;;;;;;;;;5096040;28;20199;-53
2022/03/23 09:24:56;;;;;;;8.27;6.47;;;;;;;;;;5094426;28;20196;-53
2022/03/23 09:27:24;;;;;;;7.50;6.40;;;;;;;;;;5094023;28;20239;-53
2022/03/23 09:29:53;;;;;;;7.15;6.35;;;;;;;;;;5093473;28;20269;-53
2022/03/23 09:32:22;;;;;;;6.75;6.10;;;;;;;;;;5094037;28;20191;-53
2022/03/23 09:34:50;;;;;;;7.32;6.43;;;;;;;;;;5093264;28;20278;-53
2022/03/23 09:40:02;;;;;;;7.93;6.43;;;;;;;;;;5092908;28;20214;-53
2022/03/23 09:42:31;;;;;;;7.78;6.15;;;;;;;;;;5093537;28;20374;-53
2022/03/23 09:45:00;;;;;;;9.05;6.30;;;;;;;;;;5093540;28;20269;-53
2022/03/23 09:47:28;;;;;;;6.78;6.18;;;;;;;;;;5092641;28;20227;-53
2022/03/23 09:49:55;;;;;;;6.50;5.90;;;;;;;;;;5092741;28;20218;-53
2022/03/23 09:52:22;;;;;;;7.32;6.20;;;;;;;;;;5092295;28;20436;-53
2022/03/23 09:54:50;;;;;;;6.43;5.60;;;;;;;;;;5093902;28;20633;-53
2022/03/23 09:57:17;;;;;;;6.85;6.15;;;;;;;;;;5093110;28;20272;-53
2022/03/23 09:59:45;;;;;;;6.45;5.43;;;;;;;;;;5094783;28;20294;-53
2022/03/23 10:02:38;;;;;;;6.68;6.07;;;;;;;;;;5092737;28;20621;-53
2022/03/23 10:05:32;;;;;;;6.75;5.72;;;;;;;;;;5092909;28;20204;-53
2022/03/23 10:08:08;;;;;;;6.40;5.70;;;;;;;;;;5093667;28;20567;-53
2022/03/23 10:10:54;;;;;;;5.70;5.20;;;;;;;;;;5093838;28;20323;-53
2022/03/23 10:13:40;;;;;;;6.10;5.50;;;;;;;;;;5093345;28;20302;-54
2022/03/23 10:16:22;;;;;;;6.18;5.57;;;;;;;;;;5092968;28;20314;-53
2022/03/23 10:18:52;;;;;;;6.10;5.50;;;;;;;;;;5072309;28;20199;-53
2022/03/23 10:21:21;;;;;;;5.65;4.80;;;;;;;;;;5093038;28;20225;-53
2022/03/23 10:23:52;;;;;;;5.78;5.07;;;;;;;;;;5092279;28;20270;-53
2022/03/23 10:26:19;;;;;;;5.43;5.00;;;;;;;;;;5092294;28;20269;-53
2022/03/23 10:28:47;;;;;;;5.68;5.07;;;;;;;;;;5090565;28;20196;-53
2022/03/23 10:31:16;;;;;;;6.25;5.65;;;;;;;;;;5093489;28;20302;-53
2022/03/23 10:33:44;;;;;;;5.78;5.22;;;;;;;;;;5093784;28;20227;-53
2022/03/23 10:36:13;;;;;;;5.68;5.15;;;;;;;;;;5093655;28;20214;-53
2022/03/23 10:38:41;;;;;;;5.55;5.03;;;;;;;;;;5093083;28;20199;-53
2022/03/23 10:41:12;;;;;;;5.22;4.72;;;;;;;;;;5091818;28;20293;-53
2022/03/23 10:43:40;;;;;;;5.68;5.18;;;;;;;;;;5090740;28;20302;-53
2022/03/23 10:46:11;;;;;;;5.90;5.13;;;;;;;;;;5091463;28;20187;-53
2022/03/23 10:48:38;;;;;;;6.00;5.32;;;;;;;;;;5091192;28;20237;-53
2022/03/23 10:51:06;;;;;;;5.72;5.22;;;;;;;;;;5092895;28;20204;-53
2022/03/23 10:53:38;;;;;;;5.75;5.25;;;;;;;;;;5092413;28;20203;-53
2022/03/23 10:56:06;;;;;;;5.10;4.70;;;;;;;;;;5092460;28;20305;-53
2022/03/23 10:58:35;;;;;;;5.78;5.28;;;;;;;;;;5092044;28;20203;-53
2022/03/23 11:01:03;;;;;;;5.45;4.95;;;;;;;;;;5093450;28;20475;-53
2022/03/23 11:03:43;;;;;;;5.60;4.93;;;;;;;;;;5093958;28;20306;-53
2022/03/23 11:06:12;;;;;;;5.35;4.88;;;;;;;;;;5093724;28;20196;-53
2022/03/23 11:08:41;;;;;;;4.75;4.30;;;;;;;;;;5092837;28;20291;-53
2022/03/23 11:16:39;;;;;;;6.20;5.55;;;;;;;;;;5090395;28;20484;-53
2022/03/23 11:19:16;;;;;;;6.38;5.78;;;;;;;;;;5092659;28;20295;-53
2022/03/23 11:22:09;;;;;;;7.20;6.50;;;;;;;;;;5090892;28;20227;-53
2022/03/23 11:24:40;;;;;;;7.32;6.63;;;;;;;;;;5067997;28;20560;-53
2022/03/23 11:27:08;;;;;;;7.57;6.88;;;;;;;;;;5092095;28;20506;-53
2022/03/23 11:29:37;;;;;;;6.90;6.28;;;;;;;;;;5092571;28;20203;-53
2022/03/23 11:32:05;;;;;;;7.28;6.57;;;;;;;;;;5090868;28;20228;-53
2022/03/23 11:34:34;;;;;;;7.53;6.82;;;;;;;;;;5090990;28;20275;-53
2022/03/23 11:37:03;;;;;;;6.82;6.13;;;;;;;;;;5090226;28;20208;-53
2022/03/23 11:39:31;;;;;;;7.18;6.22;;;;;;;;;;5091584;28;20202;-53
2022/03/23 11:42:02;;;;;;;7.75;6.90;;;;;;;;;;5094554;28;20475;-53
2022/03/23 11:44:30;;;;;;;7.68;6.97;;;;;;;;;;5095335;28;20211;-53
2022/03/23 11:46:59;;;;;;;6.80;6.20;;;;;;;;;;5095494;28;20318;-53
2022/03/23 11:49:33;;;;;;;7.05;6.35;;;;;;;;;;5094410;28;20203;-53
2022/03/23 11:52:15;;;;;;;6.95;6.35;;;;;;;;;;5094987;28;20196;-53
2022/03/23 11:57:48;;;;;;;6.68;6.07;;;;;;;;;;5096007;28;20191;-53
2022/03/23 12:00:20;;;;;;;7.18;6.47;;;;;;;;;;5092634;28;20293;-53
2022/03/23 12:02:48;;;;;;;6.78;6.18;;;;;;;;;;5092478;28;20251;-53
2022/03/23 12:05:25;;;;;;;8.38;6.32;;;;;;;;;;5094732;28;20206;-53
2022/03/23 12:07:53;;;;;;;7.00;6.13;;;;;;;;;;5093314;28;20522;-53
2022/03/23 12:10:21;;;;;;;6.75;6.05;;;;;;;;;;5094562;28;20235;-53
2022/03/23 12:12:49;;;;;;;6.63;5.82;;;;;;;;;;5095475;28;20283;-53
2022/03/23 12:15:28;;;;;;;5.90;5.40;;;;;;;;;;5094958;28;20575;-53
2022/03/23 12:18:03;;;;;;;6.22;5.35;;;;;;;;;;5093611;28;20191;-53
2022/03/23 12:20:31;;;;;;;6.03;5.45;;;;;;;;;;5093268;28;20199;-53
2022/03/23 12:23:13;;;;;;;6.18;5.57;;;;;;;;;;5093660;28;20277;-53
2022/03/23 12:25:50;;;;;;;6.15;5.55;;;;;;;;;;5094733;28;20290;-53
2022/03/23 12:28:24;;;;;;;5.90;5.30;;;;;;;;;;5094157;28;20231;-53
2022/03/23 12:31:07;;;;;;;6.00;5.40;;;;;;;;;;5093186;28;20203;-53
2022/03/23 12:33:54;;;;;;;5.63;5.13;;;;;;;;;;5093455;28;20246;-53
2022/03/23 12:36:56;;;;;;;6.22;5.32;;;;;;;;;;5093945;28;20292;-53
2022/03/23 12:39:27;;;;;;;4.88;4.45;;;;;;;;;;5092707;28;20206;-53
2022/03/23 12:41:55;;;;;;;6.00;5.40;;;;;;;;;;5094085;28;20295;-53
2022/03/23 12:44:32;;;;;;;5.95;5.38;;;;;;;;;;5094089;28;20215;-53
2022/03/23 12:47:06;;;;;;;5.70;5.18;;;;;;;;;;5092625;28;20321;-53
2022/03/23 12:58:02;;;;;;;6.00;5.22;;;;;;;;;;5091066;28;20245;-53
2022/03/23 13:00:30;;;;;;;5.45;4.95;;;;;;;;;;5093328;28;20211;-53
2022/03/23 13:03:32;;;;;;;5.38;4.88;;;;;;;;;;5093111;28;20227;-53
2022/03/23 13:06:08;;;;;;;5.28;4.78;;;;;;;;;;5091650;28;20269;-53
2022/03/23 13:08:51;;;;;;;5.03;4.63;;;;;;;;;;5093660;28;20206;-53
2022/03/23 13:11:22;;;;;;;5.30;4.88;;;;;;;;;;5092081;28;20598;-53
2022/03/23 13:13:51;;;;;;;6.07;5.30;;;;;;;;;;5092011;28;20650;-53
2022/03/23 13:16:20;;;;;;;6.00;5.40;;;;;;;;;;5091791;28;20501;-53
2022/03/23 13:18:48;;;;;;;5.93;5.43;;;;;;;;;;5092182;28;20204;-53
2022/03/23 13:21:19;;;;;;;5.72;5.22;;;;;;;;;;5092153;28;20203;-53
2022/03/23 13:23:48;;;;;;;6.18;5.57;;;;;;;;;;5093248;28;20269;-53
2022/03/23 13:26:16;;;;;;;5.45;4.95;;;;;;;;;;5091053;28;20482;-53
2022/03/23 13:28:47;;;;;;;5.32;4.93;;;;;;;;;;5091278;28;20457;-53
2022/03/23 13:31:15;;;;;;;5.95;5.45;;;;;;;;;;5092516;28;20200;-53
2022/03/23 13:33:43;;;;;;;5.85;5.35;;;;;;;;;;5091595;28;20210;-53
2022/03/23 13:36:11;;;;;;;5.95;5.45;;;;;;;;;;5092659;28;20292;-53
2022/03/23 13:38:41;;;;;;;5.90;5.40;;;;;;;;;;5078113;28;20553;-53
2022/03/23 13:43:55;;;;;;;5.72;5.22;;;;;;;;;;5088093;28;20204;-53
2022/03/23 13:46:23;;;;;;;5.80;5.30;;;;;;;;;;5090434;28;20632;-53
2022/03/23 13:48:59;;;;;;;6.05;4.85;;;;;;;;;;5090881;28;20277;-53
2022/03/23 13:51:34;;;;;;;5.97;5.47;;;;;;;;;;5091399;28;20195;-53
2022/03/23 13:54:05;;;;;;;6.32;5.75;;;;;;;;;;5092365;28;20602;-53
2022/03/23 13:56:34;;;;;;;5.85;5.35;;;;;;;;;;5088755;28;20308;-53
2022/03/23 13:59:01;;;;;;;5.55;5.05;;;;;;;;;;5091718;28;20300;-53
2022/03/23 14:01:29;;;;;;;4.97;4.47;;;;;;;;;;5090682;28;20206;-53
2022/03/23 14:03:59;;;;;;;5.28;4.80;;;;;;;;;;5090411;28;20382;-53
2022/03/23 14:06:29;;;;;;;5.10;4.60;;;;;;;;;;5089792;28;20235;-53
2022/03/23 14:08:58;;;;;;;4.88;4.47;;;;;;;;;;5092554;28;20295;-53
2022/03/23 14:14:16;;;;;;;5.50;4.93;;;;;;;;;;5091931;28;20463;-53
2022/03/23 14:16:44;;;;;;;4.85;4.45;;;;;;;;;;5091375;28;20206;-53
2022/03/23 14:19:11;;;;;;;5.07;4.65;;;;;;;;;;5090728;28;20599;-53
2022/03/23 14:21:39;;;;;;;4.35;4.03;;;;;;;;;;5091092;28;20298;-53
2022/03/23 14:24:07;;;;;;;4.60;4.20;;;;;;;;;;5092204;28;20206;-53
2022/03/23 14:26:37;;;;;;;4.97;4.47;;;;;;;;;;5090000;28;20555;-53
2022/03/23 14:29:21;;;;;;;4.53;4.13;;;;;;;;;;5089613;28;20203;-53
2022/03/23 14:31:49;;;;;;;4.97;4.57;;;;;;;;;;5091678;28;20280;-53
2022/03/23 14:34:25;;;;;;;4.90;4.50;;;;;;;;;;5089781;28;20195;-53
2022/03/23 14:37:04;;;;;;;5.05;4.57;;;;;;;;;;5091558;28;20215;-53
2022/03/23 14:39:40;;;;;;;4.93;4.53;;;;;;;;;;5092328;28;20211;-53
2022/03/23 14:42:10;;;;;;;4.93;4.45;;;;;;;;;;5089859;28;20227;-53
2022/03/23 14:44:39;;;;;;;5.38;4.50;;;;;;;;;;5088832;28;20528;-53
2022/03/23 14:47:09;;;;;;;5.15;4.65;;;;;;;;;;5092500;28;20325;-53
2022/03/23 14:49:37;;;;;;;5.30;4.80;;;;;;;;;;5092044;28;20203;-53
2022/03/23 14:52:05;;;;;;;6.28;4.72;;;;;;;;;;5088791;28;20198;-53
2022/03/23 14:54:33;;;;;;;5.28;4.78;;;;;;;;;;5088765;28;20218;-53
2022/03/23 14:57:00;;;;;;;5.28;4.78;;;;;;;;;;5089774;28;20496;-53
2022/03/23 14:59:31;;;;;;;4.68;4.28;;;;;;;;;;5090266;28;20582;-53
2022/03/23 15:01:59;;;;;;;4.88;4.47;;;;;;;;;;5088629;28;20203;-53
2022/03/23 15:04:28;;;;;;;5.65;5.15;;;;;;;;;;5090309;28;20203;-53
2022/03/23 15:15:12;;;;;;;4.90;4.50;;;;;;;;;;5091547;28;20241;-53
2022/03/23 15:17:40;;;;;;;5.47;4.82;;;;;;;;;;5094175;28;20613;-53
2022/03/23 15:20:08;;;;;;;5.40;4.90;;;;;;;;;;5094420;28;20454;-53
2022/03/23 15:22:38;;;;;;;4.97;4.47;;;;;;;;;;5093802;28;20534;-53
2022/03/23 15:25:06;;;;;;;5.28;4.88;;;;;;;;;;5092978;28;20200;-53
2022/03/23 15:27:34;;;;;;;6.15;5.30;;;;;;;;;;5093185;28;20298;-53
2022/03/23 15:30:02;;;;;;;5.28;4.78;;;;;;;;;;5092806;28;20203;-53
2022/03/23 15:32:31;;;;;;;5.68;5.20;;;;;;;;;;5093131;28;20676;-53
2022/03/23 15:34:58;;;;;;;5.00;4.60;;;;;;;;;;5093103;28;20292;-53
2022/03/23 15:37:25;;;;;;;6.28;5.10;;;;;;;;;;5092269;28;20294;-53
2022/03/23 15:39:53;;;;;;;4.93;4.53;;;;;;;;;;5094022;28;20402;-53